Time;durP1;ratioP1;P1;durP2;ratioP2;P2;SDS_P1;SDS_P2;PMS_P1;PMS_P2;Temp;Humidity;BMP_temperature;BMP_pressure;BME280_temperature;BME280_humidity;BME280_pressure;Samples;Min_cycle;Max_cycle;Signal;HPM_P1;HPM_P2
2020/12/12 00:00:01;;;;;;;29.13;16.00;;;;;;;-1.34;87.56;100015.44;1742239;81;21384;-64
2020/12/12 00:02:34;;;;;;;26.00;13.73;;;;;;;-1.29;87.57;100017.58;1742650;82;21779;-64
2020/12/12 00:05:02;;;;;;;19.63;12.33;;;;;;;-1.27;87.37;100015.61;1742528;82;21053;-63
2020/12/12 00:07:31;;;;;;;25.40;14.40;;;;;;;-1.24;87.34;100012.63;1742655;82;21605;-69
2020/12/12 00:09:59;;;;;;;24.50;12.80;;;;;;;-1.26;87.23;100007.20;1742715;82;21172;-64
2020/12/12 00:12:26;;;;;;;21.10;13.67;;;;;;;-1.28;87.35;100010.49;1736828;82;22185;-63
2020/12/12 00:14:54;;;;;;;24.03;15.17;;;;;;;-1.27;87.42;100008.19;1734817;82;21142;-68
2020/12/12 00:17:21;;;;;;;23.33;16.30;;;;;;;-1.25;87.59;100008.37;1741574;82;21114;-63
2020/12/12 00:19:50;;;;;;;23.53;15.40;;;;;;;-1.19;87.59;100007.68;1733055;82;21081;-64
2020/12/12 00:22:17;;;;;;;27.80;16.77;;;;;;;-1.08;87.56;100002.56;1732615;82;21617;-64
2020/12/12 00:24:45;;;;;;;20.90;14.47;;;;;;;-1.05;87.29;100007.00;1742708;82;21625;-66
2020/12/12 00:27:12;;;;;;;26.10;16.10;;;;;;;-1.03;87.04;100003.71;1742593;82;21758;-64
2020/12/12 00:29:42;;;;;;;25.60;14.83;;;;;;;-1.05;87.01;99999.58;1733873;82;21586;-64
2020/12/12 00:32:09;;;;;;;23.10;14.57;;;;;;;-1.03;87.08;99992.33;1724144;82;21190;-65
2020/12/12 00:34:37;;;;;;;27.00;18.07;;;;;;;-1.01;87.10;99991.67;1726792;82;21184;-66
2020/12/12 00:37:06;;;;;;;26.83;17.03;;;;;;;-1.06;87.03;99997.46;1739291;82;21276;-67
2020/12/12 00:39:33;;;;;;;25.57;15.83;;;;;;;-1.11;87.19;99985.27;1742203;82;21989;-65
2020/12/12 00:42:01;;;;;;;32.97;19.03;;;;;;;-1.13;87.42;99983.77;1742682;82;21137;-64
2020/12/12 00:44:28;;;;;;;31.10;18.33;;;;;;;-1.09;87.60;99977.16;1741462;82;21148;-64
2020/12/12 00:46:56;;;;;;;22.00;15.63;;;;;;;-1.10;87.56;99979.45;1742622;82;21167;-68
2020/12/12 00:49:24;;;;;;;25.67;14.97;;;;;;;-1.09;87.64;99975.83;1742661;82;21878;-67
2020/12/12 00:51:52;;;;;;;19.33;12.50;;;;;;;-1.01;87.76;99980.59;1727595;82;21189;-64
2020/12/12 00:54:19;;;;;;;20.30;12.70;;;;;;;-0.99;87.52;99976.48;1724460;82;21121;-66
2020/12/12 00:56:47;;;;;;;29.60;20.03;;;;;;;-0.96;87.48;99976.16;1741973;82;21188;-65
2020/12/12 00:59:14;;;;;;;18.33;11.83;;;;;;;-0.99;87.37;99973.34;1731956;82;21827;-66
2020/12/12 01:01:42;;;;;;;30.20;20.50;;;;;;;-1.06;87.44;99975.03;1726537;82;22187;-62
2020/12/12 01:04:10;;;;;;;25.40;15.47;;;;;;;-1.09;87.71;99967.42;1742897;82;21188;-62
2020/12/12 01:06:38;;;;;;;29.20;16.17;;;;;;;-1.10;87.86;99963.63;1743179;82;21136;-68
2020/12/12 01:09:06;;;;;;;34.33;17.80;;;;;;;-1.12;87.86;99959.86;1740844;82;21088;-67
2020/12/12 01:11:33;;;;;;;27.27;16.60;;;;;;;-1.09;87.90;99967.42;1723728;82;21124;-66
2020/12/12 01:14:01;;;;;;;26.33;16.43;;;;;;;-1.10;87.81;99964.95;1720798;82;21148;-68
2020/12/12 01:16:28;;;;;;;21.90;15.27;;;;;;;-1.08;87.88;99970.40;1742160;82;21002;-66
2020/12/12 01:18:56;;;;;;;27.77;16.90;;;;;;;-1.04;87.91;99964.28;1742586;82;21184;-65
2020/12/12 01:21:25;;;;;;;21.43;14.43;;;;;;;-1.08;87.85;99962.97;1734449;82;21242;-66
2020/12/12 01:23:53;;;;;;;26.23;19.00;;;;;;;-1.09;87.82;99966.59;1737922;82;21196;-64
2020/12/12 01:26:20;;;;;;;26.10;16.67;;;;;;;-1.10;87.75;99967.09;1742652;82;21669;-65
2020/12/12 01:28:48;;;;;;;27.53;18.37;;;;;;;-1.10;87.66;99968.91;1738202;82;21660;-68
2020/12/12 01:31:16;;;;;;;26.70;18.13;;;;;;;-1.09;87.48;99962.14;1741214;82;21029;-66
2020/12/12 01:33:43;;;;;;;31.20;17.87;;;;;;;-1.14;87.37;99963.14;1742197;82;21623;-65
2020/12/12 01:36:12;;;;;;;28.50;16.43;;;;;;;-1.13;87.34;99960.84;1741547;82;21427;-68
2020/12/12 01:38:40;;;;;;;27.37;16.23;;;;;;;-1.11;87.30;99965.96;1741977;82;21772;-66
2020/12/12 01:41:08;;;;;;;26.57;16.47;;;;;;;-1.13;87.15;99963.97;1742046;82;21679;-66
2020/12/12 01:43:36;;;;;;;22.07;13.67;;;;;;;-1.20;87.04;99965.65;1736216;82;21030;-69
2020/12/12 01:46:03;;;;;;;22.77;14.27;;;;;;;-1.26;86.92;99970.27;1718721;82;21149;-66
2020/12/12 01:48:31;;;;;;;33.03;17.73;;;;;;;-1.33;87.00;99966.97;1723080;82;21604;-67
2020/12/12 01:50:58;;;;;;;29.50;18.20;;;;;;;-1.30;87.11;99963.19;1727344;81;21647;-65
2020/12/12 01:53:26;;;;;;;30.53;17.23;;;;;;;-1.28;87.14;99959.05;1756513;81;21154;-65
2020/12/12 01:55:54;;;;;;;31.33;20.27;;;;;;;-1.25;87.15;99965.33;1747843;81;21143;-65
2020/12/12 01:58:22;;;;;;;30.07;17.63;;;;;;;-1.30;87.07;99959.23;1735200;81;21444;-65
2020/12/12 02:00:49;;;;;;;27.10;16.97;;;;;;;-1.33;87.11;99965.65;1741836;81;21200;-65
2020/12/12 02:03:18;;;;;;;28.63;14.83;;;;;;;-1.35;87.08;99957.59;1723820;83;21586;-64
2020/12/12 02:05:46;;;;;;;25.53;17.73;;;;;;;-1.34;87.01;99962.67;1691015;83;21162;-65
2020/12/12 02:08:18;;;;;;;24.53;16.37;;;;;;;-1.38;86.81;99952.13;1730636;82;21196;-66
2020/12/12 02:10:48;;;;;;;25.53;16.27;;;;;;;-1.33;86.71;99956.91;1738654;80;21050;-63
2020/12/12 02:13:17;;;;;;;25.57;16.30;;;;;;;-1.39;86.66;99964.98;1713312;82;21562;-62
2020/12/12 02:15:46;;;;;;;24.47;14.30;;;;;;;-1.41;86.65;99964.84;1728520;82;21441;-63
2020/12/12 02:18:20;;;;;;;20.57;13.13;;;;;;;-1.47;86.70;99966.33;1719616;82;21164;-62
2020/12/12 02:20:55;;;;;;;;;;;;;;;-1.56;86.88;99959.41;1716892;82;21108;-62
2020/12/12 02:23:22;;;;;;;35.60;18.77;;;;;;;-1.54;86.91;99955.30;1712992;83;20276;-62
2020/12/12 02:25:51;;;;;;;27.40;15.40;;;;;;;-1.53;86.99;99960.38;1712927;83;21124;-62
2020/12/12 02:28:22;;;;;;;29.07;16.00;;;;;;;-1.55;86.96;99958.92;1727247;82;21398;-62
2020/12/12 02:30:49;;;;;;;15.10;8.23;;;;;;;-1.58;86.91;99967.17;1713038;83;21160;-61
2020/12/12 02:33:18;;;;;;;25.43;14.67;;;;;;;-1.62;87.16;99963.19;1715021;82;21577;-63
2020/12/12 02:35:45;;;;;;;35.53;18.43;;;;;;;-1.64;87.12;99954.64;1713552;83;21176;-61
2020/12/12 02:38:14;;;;;;;25.20;15.43;;;;;;;-1.68;87.33;99955.95;1716945;82;21597;-62
2020/12/12 02:40:42;;;;;;;37.10;21.83;;;;;;;-1.69;87.48;99945.08;1732364;82;21434;-62
2020/12/12 02:43:12;;;;;;;22.80;12.57;;;;;;;-1.66;87.42;99949.52;1741681;82;21619;-65
2020/12/12 02:45:45;;;;;;;25.83;13.67;;;;;;;-1.71;87.30;99962.86;1715933;82;21182;-62
2020/12/12 02:48:14;;;;;;;24.50;15.70;;;;;;;-1.76;87.45;99960.23;1688860;82;21155;-61
2020/12/12 02:50:42;;;;;;;22.37;14.97;;;;;;;-1.73;87.49;99957.77;1741576;82;21184;-66
2020/12/12 02:53:10;;;;;;;31.77;17.53;;;;;;;-1.73;87.44;99959.09;1742258;82;21370;-66
2020/12/12 02:55:38;;;;;;;22.93;15.67;;;;;;;-1.77;87.49;99951.16;1713014;82;21211;-64
2020/12/12 02:58:07;;;;;;;21.87;15.90;;;;;;;-1.77;87.49;99955.94;1712862;83;21159;-65
2020/12/12 03:00:34;;;;;;;22.60;16.00;;;;;;;-1.81;87.55;99945.88;1713416;82;21160;-64
2020/12/12 03:03:02;;;;;;;14.50;10.77;;;;;;;-1.87;87.71;99946.04;1714500;82;21155;-62
2020/12/12 03:05:30;;;;;;;19.00;13.60;;;;;;;-1.81;87.77;99943.25;1734950;82;21394;-62
2020/12/12 03:07:58;;;;;;;24.67;16.83;;;;;;;-1.77;87.65;99943.25;1735786;82;21156;-64
2020/12/12 03:10:26;;;;;;;21.10;13.27;;;;;;;-1.82;87.37;99934.52;1713695;82;21167;-65
2020/12/12 03:12:53;;;;;;;23.40;12.47;;;;;;;-1.88;87.51;99936.52;1712989;83;21621;-64
2020/12/12 03:15:21;;;;;;;20.30;13.30;;;;;;;-1.93;87.64;99938.81;1739707;82;21100;-70
2020/12/12 03:17:48;;;;;;;21.83;13.03;;;;;;;-1.99;87.89;99939.45;1733493;82;23165;-68
2020/12/12 03:20:17;;;;;;;26.60;14.77;;;;;;;-1.99;88.02;99939.95;1715088;83;21137;-65
2020/12/12 03:22:44;;;;;;;22.07;15.17;;;;;;;-1.98;87.91;99939.80;1727019;82;21160;-82
2020/12/12 03:25:13;;;;;;;28.80;16.80;;;;;;;-2.04;88.03;99943.08;1739021;82;21216;-64
2020/12/12 03:27:41;;;;;;;22.60;16.07;;;;;;;-1.99;88.11;99943.90;1743320;82;21219;-63
2020/12/12 03:30:08;;;;;;;23.77;14.63;;;;;;;-2.05;87.90;99944.05;1743007;82;21281;-63
2020/12/12 03:32:36;;;;;;;24.57;16.13;;;;;;;-2.07;87.90;99950.48;1742321;82;21018;-64
2020/12/12 03:35:03;;;;;;;36.57;16.53;;;;;;;-2.10;87.93;99941.08;1743302;82;21550;-64
2020/12/12 03:37:31;;;;;;;18.87;14.23;;;;;;;-2.09;87.89;99951.95;1739826;82;21638;-63
2020/12/12 03:39:58;;;;;;;25.37;14.67;;;;;;;-2.06;88.00;99952.94;1736996;82;21662;-63
2020/12/12 03:42:26;;;;;;;23.10;16.27;;;;;;;-2.04;87.87;99952.78;1741431;82;22358;-62
2020/12/12 03:44:54;;;;;;;27.93;15.47;;;;;;;-2.03;87.72;99948.68;1737692;81;21975;-65
2020/12/12 03:47:21;;;;;;;21.87;13.80;;;;;;;-2.03;87.72;99949.17;1725882;83;21595;-65
2020/12/12 03:49:49;;;;;;;26.00;13.83;;;;;;;-2.04;87.64;99944.88;1725614;83;21622;-64
2020/12/12 03:52:19;;;;;;;30.97;15.80;;;;;;;-2.11;87.73;99943.38;1725925;81;21161;-63
2020/12/12 03:54:46;;;;;;;23.67;13.87;;;;;;;-2.19;87.77;99946.00;1727761;81;21255;-63
2020/12/12 03:57:14;;;;;;;21.83;13.97;;;;;;;-2.17;87.88;99951.95;1725612;83;21178;-64
2020/12/12 03:59:42;;;;;;;26.97;14.43;;;;;;;-2.15;87.86;99951.28;1725673;83;21544;-64
2020/12/12 04:02:10;;;;;;;16.63;10.27;;;;;;;-2.25;87.63;99950.11;1722937;83;21579;-64
2020/12/12 04:04:38;;;;;;;17.00;11.23;;;;;;;-2.33;87.79;99951.41;1742958;81;21131;-61
2020/12/12 04:07:06;;;;;;;26.73;16.43;;;;;;;-2.38;88.08;99952.39;1754009;81;21209;-64
2020/12/12 04:09:34;;;;;;;17.60;11.73;;;;;;;-2.43;88.21;99951.21;1741998;82;21192;-64
2020/12/12 04:12:01;;;;;;;23.93;14.50;;;;;;;-2.37;88.48;99950.09;1742711;82;21633;-63
2020/12/12 04:14:29;;;;;;;24.63;13.40;;;;;;;-2.33;88.30;99938.73;1727612;82;21112;-62
2020/12/12 04:16:58;;;;;;;22.87;13.83;;;;;;;-2.37;88.01;99946.14;1728597;82;21118;-63
2020/12/12 04:19:26;;;;;;;19.77;12.20;;;;;;;-2.37;87.67;99944.83;1720487;82;21378;-63
2020/12/12 04:21:53;;;;;;;26.17;14.23;;;;;;;-2.37;87.65;99947.45;1713726;82;21061;-64
2020/12/12 04:24:21;;;;;;;23.53;13.97;;;;;;;-2.35;87.26;99953.38;1713142;83;20978;-63
2020/12/12 04:26:49;;;;;;;22.73;14.23;;;;;;;-2.33;87.15;99951.41;1712995;83;21573;-63
2020/12/12 04:29:16;;;;;;;32.83;17.80;;;;;;;-2.31;87.03;99951.27;1713099;83;21554;-63
2020/12/12 04:31:44;;;;;;;20.63;14.10;;;;;;;-2.37;86.51;99943.50;1713021;83;23592;-62
2020/12/12 04:34:12;;;;;;;27.30;14.93;;;;;;;-2.39;86.26;99952.05;1715033;82;21712;-64
2020/12/12 04:36:41;;;;;;;21.57;14.30;;;;;;;-2.42;86.15;99948.92;1713739;82;21145;-64
2020/12/12 04:39:09;;;;;;;15.10;11.50;;;;;;;-2.46;85.94;99948.42;1713779;82;21183;-62
2020/12/12 04:41:37;;;;;;;20.83;13.50;;;;;;;-2.41;85.58;99944.81;1738317;82;21557;-63
2020/12/12 04:44:04;;;;;;;24.37;14.30;;;;;;;-2.46;84.96;99937.89;1742220;82;21562;-63
2020/12/12 04:46:32;;;;;;;15.50;11.53;;;;;;;-2.46;84.64;99936.57;1742634;82;21167;-60
2020/12/12 04:48:59;;;;;;;23.53;13.17;;;;;;;-2.52;84.37;99946.42;1715756;82;21617;-62
2020/12/12 04:51:27;;;;;;;21.17;13.87;;;;;;;-2.60;84.12;99945.09;1744338;82;21047;-63
2020/12/12 04:53:57;;;;;;;20.77;13.50;;;;;;;-2.62;84.30;99934.36;1743313;82;21643;-63
2020/12/12 04:56:26;;;;;;;20.97;12.57;;;;;;;-2.61;84.00;99939.48;1729131;82;22101;-67
2020/12/12 04:58:54;;;;;;;19.43;12.03;;;;;;;-2.60;83.94;99936.36;1713181;82;21172;-67
2020/12/12 05:01:21;;;;;;;20.77;13.10;;;;;;;-2.61;83.94;99947.37;1713676;82;21207;-66
2020/12/12 05:03:49;;;;;;;21.97;13.00;;;;;;;-2.61;83.86;99935.53;1740417;82;21581;-63
2020/12/12 05:06:17;;;;;;;19.23;11.67;;;;;;;-2.59;83.42;99935.38;1742544;82;21646;-63
2020/12/12 05:08:44;;;;;;;18.57;10.97;;;;;;;-2.68;83.18;99936.65;1742680;82;21590;-63
2020/12/12 05:11:12;;;;;;;17.40;11.50;;;;;;;-2.69;83.45;99938.14;1742554;82;21854;-65
2020/12/12 05:13:40;;;;;;;18.17;11.73;;;;;;;-2.76;83.34;99936.62;1692024;82;21152;-64
2020/12/12 05:16:08;;;;;;;16.50;10.60;;;;;;;-2.85;83.33;99931.00;1741619;82;22165;-63
2020/12/12 05:18:35;;;;;;;29.70;13.93;;;;;;;-2.92;83.81;99937.03;1742653;82;21192;-64
2020/12/12 05:21:03;;;;;;;22.67;13.93;;;;;;;-2.95;83.94;99934.23;1734172;82;22377;-64
2020/12/12 05:23:30;;;;;;;23.67;14.53;;;;;;;-2.99;84.13;99939.48;1705493;82;21586;-63
2020/12/12 05:25:58;;;;;;;25.07;14.97;;;;;;;-2.98;84.26;99932.42;1692248;82;21140;-63
2020/12/12 05:28:27;;;;;;;26.47;15.20;;;;;;;-2.99;84.62;99926.33;1742641;82;21073;-63
2020/12/12 05:30:54;;;;;;;30.07;17.90;;;;;;;-2.98;84.60;99927.16;1742542;82;21157;-65
2020/12/12 05:33:25;;;;;;;26.13;16.43;;;;;;;-2.94;84.71;99926.69;1738945;82;21401;-65
2020/12/12 05:35:53;;;;;;;20.93;15.57;;;;;;;-2.95;84.44;99917.63;1713944;83;21220;-61
2020/12/12 05:38:20;;;;;;;19.50;11.87;;;;;;;-2.96;84.46;99913.34;1714434;83;21180;-63
2020/12/12 05:40:52;;;;;;;19.47;10.73;;;;;;;-2.98;84.38;99917.46;1713828;82;21128;-64
2020/12/12 05:43:20;;;;;;;17.50;12.33;;;;;;;-3.02;84.35;99923.99;1713821;82;21195;-63
2020/12/12 05:45:47;;;;;;;26.00;14.57;;;;;;;-3.01;84.37;99913.81;1713024;83;21286;-63
2020/12/12 05:48:15;;;;;;;22.50;14.90;;;;;;;-2.98;84.37;99916.64;1754221;80;21127;-63
2020/12/12 05:50:43;;;;;;;21.40;14.20;;;;;;;-2.87;84.37;99922.91;1754316;80;21163;-63
2020/12/12 05:53:11;;;;;;;25.60;17.53;;;;;;;-2.82;84.06;99915.37;1746039;80;21187;-63
2020/12/12 05:55:39;;;;;;;27.17;16.07;;;;;;;-2.83;83.78;99909.28;1782598;80;21089;-64
2020/12/12 05:58:07;;;;;;;23.03;14.77;;;;;;;-2.86;83.83;99908.78;1770210;80;22288;-63
2020/12/12 06:00:35;;;;;;;22.50;14.93;;;;;;;-2.89;83.95;99916.52;1753916;81;21183;-61
2020/12/12 06:03:09;;;;;;;22.57;15.97;;;;;;;-2.87;84.00;99905.32;1751035;81;21158;-73
2020/12/12 06:05:36;;;;;;;28.40;19.93;;;;;;;-2.85;83.84;99906.48;1754534;80;21167;-63
2020/12/12 06:08:06;;;;;;;26.13;17.60;;;;;;;-2.79;84.08;99903.23;1730742;81;21577;-63
2020/12/12 06:10:34;;;;;;;26.70;17.30;;;;;;;-2.68;83.72;99905.06;1754009;81;21267;-64
2020/12/12 06:13:05;;;;;;;31.20;16.63;;;;;;;-2.70;83.37;99918.89;1754870;80;21160;-66
2020/12/12 06:15:37;;;;;;;24.93;15.30;;;;;;;-2.74;83.37;99915.42;1754036;81;21064;-65
2020/12/12 06:18:44;;;;;;;29.03;16.77;;;;;;;-2.73;83.34;99908.66;1780861;80;21025;-62
2020/12/12 06:21:12;;;;;;;26.43;18.17;;;;;;;-2.75;83.33;99917.72;1775175;80;21013;-66
2020/12/12 06:23:41;;;;;;;32.87;22.77;;;;;;;-2.76;83.34;99902.41;1762766;80;21526;-63
2020/12/12 06:26:10;;;;;;;35.07;23.20;;;;;;;-2.77;83.28;99907.34;1784963;80;21581;-62
2020/12/12 06:28:42;;;;;;;32.97;20.03;;;;;;;-2.79;83.45;99913.76;1736245;80;22274;-63
2020/12/12 06:31:14;;;;;;;34.17;18.77;;;;;;;-2.79;83.60;99912.44;1772660;80;21128;-63
2020/12/12 06:33:52;;;;;;;25.85;17.32;;;;;;;-2.78;83.63;99913.58;1754190;81;21558;-68
2020/12/12 06:36:29;;;;;;;25.63;16.63;;;;;;;-2.73;83.61;99911.30;1771474;80;22111;-63
2020/12/12 06:39:20;;;;;;;24.03;17.33;;;;;;;-2.71;83.71;99910.66;1778808;80;21169;-62
2020/12/12 06:41:57;;;;;;;29.60;17.07;;;;;;;-2.67;83.67;99904.58;1784147;80;21096;-64
2020/12/12 06:44:38;;;;;;;18.93;13.27;;;;;;;-2.64;83.38;99902.44;1785079;80;21032;-61
2020/12/12 06:47:06;;;;;;;25.40;16.67;;;;;;;-2.56;83.45;99903.45;1785051;80;21132;-66
2020/12/12 06:49:36;;;;;;;30.17;20.63;;;;;;;-2.50;83.43;99910.23;1785043;80;21366;-64
2020/12/12 06:52:04;;;;;;;37.33;22.33;;;;;;;-2.49;83.17;99902.64;1771481;80;21597;-66
2020/12/12 06:54:34;;;;;;;37.77;23.47;;;;;;;-2.52;83.26;99899.52;1754452;80;21633;-63
2020/12/12 06:57:02;;;;;;;31.03;20.47;;;;;;;-2.53;83.36;99892.11;1731076;81;21211;-64
2020/12/12 06:59:38;;;;;;;29.40;18.50;;;;;;;-2.52;83.41;99899.03;1754133;80;21163;-61
2020/12/12 07:02:08;;;;;;;40.77;25.13;;;;;;;-2.59;83.46;99886.19;1778214;80;21362;-64
2020/12/12 07:04:38;;;;;;;41.63;24.60;;;;;;;-2.59;83.54;99894.58;1783339;80;21603;-66
2020/12/12 07:07:10;;;;;;;33.03;20.57;;;;;;;-2.52;83.71;99893.77;1784599;80;21137;-80
2020/12/12 07:09:40;;;;;;;;;;;;;;;-2.48;83.54;99891.13;1786601;80;21290;-63
2020/12/12 07:12:09;;;;;;;27.20;18.93;;;;;;;-2.50;83.39;99895.75;1763934;80;20280;-63
2020/12/12 07:14:38;;;;;;;35.53;23.27;;;;;;;-2.50;83.47;99891.80;1765452;80;21183;-62
2020/12/12 07:17:06;;;;;;;29.43;20.50;;;;;;;-2.53;83.53;99890.79;1753691;81;20965;-64
2020/12/12 07:19:40;;;;;;;39.87;21.33;;;;;;;-2.51;83.68;99886.20;1753803;81;21045;-62
2020/12/12 07:22:10;;;;;;;28.17;18.17;;;;;;;-2.51;83.66;99886.20;1757117;80;21029;-61
2020/12/12 07:24:38;;;;;;;29.87;19.47;;;;;;;-2.52;83.73;99883.23;1767485;80;21667;-66
2020/12/12 07:27:07;;;;;;;31.00;20.73;;;;;;;-2.51;83.76;99884.06;1767486;80;21366;-63
2020/12/12 07:29:34;;;;;;;26.40;16.33;;;;;;;-2.48;83.95;99880.59;1754306;80;21135;-62
2020/12/12 07:32:02;;;;;;;36.50;18.40;;;;;;;-2.43;84.12;99870.89;1753689;81;21613;-65
2020/12/12 07:34:30;;;;;;;37.50;21.37;;;;;;;-2.47;83.84;99871.72;1757403;80;22059;-63
2020/12/12 07:37:00;;;;;;;35.03;20.20;;;;;;;-2.55;83.81;99873.03;1763397;80;21102;-62
2020/12/12 07:39:35;;;;;;;36.70;21.50;;;;;;;-2.53;84.02;99874.98;1739894;79;22454;-64
2020/12/12 07:42:04;;;;;;;34.17;18.63;;;;;;;-2.51;83.99;99872.20;1761579;79;21665;-62
2020/12/12 07:44:33;;;;;;;33.13;20.00;;;;;;;-2.47;84.05;99877.48;1736400;81;21214;-64
2020/12/12 07:47:04;;;;;;;39.07;21.73;;;;;;;-2.40;84.00;99882.44;1720421;82;21135;-63
2020/12/12 07:49:32;;;;;;;32.70;16.90;;;;;;;-2.40;83.93;99874.02;1713051;83;22166;-63
2020/12/12 07:52:09;;;;;;;37.00;18.77;;;;;;;-2.41;83.93;99868.94;1713821;82;22273;-63
2020/12/12 07:57:27;;;;;;;35.87;21.53;;;;;;;-2.30;83.93;99869.43;1846869;76;26700;-63
2020/12/12 08:00:12;;;;;;;38.20;17.67;;;;;;;-2.40;84.04;99867.44;1787514;80;20978;-65
2020/12/12 08:02:40;;;;;;;30.50;20.37;;;;;;;-2.43;84.40;99864.31;1787565;80;21371;-61
2020/12/12 08:05:10;;;;;;;35.10;17.60;;;;;;;-2.45;84.58;99864.98;1773197;78;21046;-61
2020/12/12 08:07:38;;;;;;;36.63;18.67;;;;;;;-2.43;84.67;99863.83;1814931;77;21703;-64
2020/12/12 08:10:08;;;;;;;31.23;18.77;;;;;;;-2.38;84.66;99862.84;1800874;78;21009;-62
2020/12/12 08:12:36;;;;;;;32.10;17.90;;;;;;;-2.31;84.60;99861.22;1793168;77;20976;-64
2020/12/12 08:15:19;;;;;;;30.70;17.43;;;;;;;-2.30;84.57;99852.80;1801024;78;21409;-63
2020/12/12 08:17:44;;;;;;;27.17;17.37;;;;;;;-2.26;84.50;99852.34;1819369;78;21573;-65
2020/12/12 08:20:24;;;;;;;32.77;18.40;;;;;;;-2.24;84.58;99862.69;1800151;78;20988;-64
2020/12/12 08:22:54;;;;;;;26.83;16.60;;;;;;;-2.25;84.61;99859.23;1793603;78;21124;-63
2020/12/12 08:25:21;;;;;;;32.00;15.50;;;;;;;-2.24;84.73;99858.73;1795305;78;21637;-63
2020/12/12 08:27:51;;;;;;;39.10;24.10;;;;;;;-2.25;84.75;99857.09;1787611;78;22361;-62
2020/12/12 08:30:19;;;;;;;42.13;23.93;;;;;;;-2.21;84.95;99855.80;1787398;80;21049;-63
2020/12/12 08:32:47;;;;;;;29.47;17.50;;;;;;;-2.21;85.04;99859.23;1798208;78;21558;-63
2020/12/12 08:35:29;;;;;;;33.10;21.63;;;;;;;-2.26;85.32;99852.83;1801676;78;21013;-64
2020/12/12 08:38:06;;;;;;;31.03;20.73;;;;;;;-2.26;85.48;99862.05;1788340;80;21188;-68
2020/12/12 08:40:47;;;;;;;28.77;18.37;;;;;;;-2.22;85.71;99860.23;1787523;80;21317;-63
2020/12/12 08:43:16;;;;;;;29.97;19.97;;;;;;;-2.12;85.61;99865.84;1788259;78;21565;-62
2020/12/12 08:45:55;;;;;;;33.07;18.93;;;;;;;-2.12;85.43;99861.39;1787470;80;21160;-63
2020/12/12 08:48:35;;;;;;;25.17;18.03;;;;;;;-2.05;85.50;99858.91;1769588;78;21037;-64
2020/12/12 08:51:05;;;;;;;25.73;17.27;;;;;;;-2.08;85.45;99856.13;1757081;80;21170;-62
2020/12/12 08:53:38;;;;;;;25.47;16.13;;;;;;;-2.10;85.16;99854.63;1756390;81;21199;-63
2020/12/12 08:56:13;;;;;;;;;;;;;;;-2.12;85.04;99858.77;1758873;80;21014;-65
2020/12/12 08:58:54;;;;;;;27.60;13.07;;;;;;;-2.20;84.64;99854.78;1756272;81;20241;-64
2020/12/12 09:01:32;;;;;;;29.93;16.47;;;;;;;-2.33;84.75;99848.70;1756185;81;21037;-64
2020/12/12 09:04:13;;;;;;;25.20;15.33;;;;;;;-2.45;85.23;99849.19;1756280;81;21105;-63
2020/12/12 09:06:53;;;;;;;25.30;14.97;;;;;;;-2.53;85.30;99849.98;1764937;80;21193;-63
2020/12/12 09:09:26;;;;;;;37.25;18.35;;;;;;;-2.53;85.61;99857.88;1762348;80;21210;-66
2020/12/12 09:12:07;;;;;;;32.40;20.20;;;;;;;-2.49;85.87;99852.62;1756008;81;21234;-64
2020/12/12 09:14:38;;;;;;;38.23;18.43;;;;;;;-2.50;85.95;99848.85;1755685;81;21196;-62
2020/12/12 09:17:09;;;;;;;25.87;15.87;;;;;;;-2.49;86.15;99849.98;1755735;81;21202;-63
2020/12/12 09:19:39;;;;;;;22.45;15.10;;;;;;;-2.45;86.11;99842.61;1756082;81;20998;-68
2020/12/12 09:22:08;;;;;;;29.63;17.73;;;;;;;-2.42;85.67;99847.05;1758746;81;20946;-75
2020/12/12 09:24:37;;;;;;;26.53;16.20;;;;;;;-2.45;85.63;99835.53;1756681;81;21130;-64
2020/12/12 09:27:05;;;;;;;35.90;18.80;;;;;;;-2.47;85.89;99838.81;1785273;80;21140;-64
2020/12/12 09:29:33;;;;;;;20.83;15.90;;;;;;;-2.48;86.03;99833.20;1786869;80;21621;-65
2020/12/12 09:32:01;;;;;;;26.00;14.43;;;;;;;-2.49;86.15;99833.36;1786809;80;21460;-65
2020/12/12 09:34:28;;;;;;;29.90;16.53;;;;;;;-2.52;86.25;99836.33;1786772;80;21117;-63
2020/12/12 09:36:56;;;;;;;35.57;17.87;;;;;;;-2.48;86.36;99829.25;1762161;80;21622;-63
2020/12/12 09:39:23;;;;;;;26.70;16.03;;;;;;;-2.47;86.27;99828.27;1779857;78;21189;-63
2020/12/12 09:41:59;;;;;;;32.20;18.70;;;;;;;-2.48;86.21;99829.75;1780372;78;21013;-63
2020/12/12 09:44:28;;;;;;;27.70;14.27;;;;;;;-2.44;86.12;99827.94;1764959;80;21154;-62
2020/12/12 09:46:56;;;;;;;21.77;13.23;;;;;;;-2.44;85.80;99830.57;1777415;80;21337;-66
2020/12/12 09:49:24;;;;;;;22.60;14.93;;;;;;;-2.41;85.85;99822.86;1779048;80;21588;-63
2020/12/12 09:51:52;;;;;;;25.50;15.40;;;;;;;-2.40;85.63;99823.98;1771274;80;21054;-62
2020/12/12 09:54:20;;;;;;;21.70;13.00;;;;;;;-2.38;85.75;99825.15;1757877;80;21200;-62
2020/12/12 09:56:48;;;;;;;27.73;16.03;;;;;;;-2.29;85.82;99822.84;1755789;80;21197;-62
2020/12/12 09:59:19;;;;;;;28.17;16.37;;;;;;;-2.27;85.62;99820.39;1755740;81;21581;-63
2020/12/12 10:01:47;;;;;;;28.40;18.87;;;;;;;-2.23;85.79;99815.61;1757848;80;21172;-62
2020/12/12 10:04:15;;;;;;;25.00;14.87;;;;;;;-2.19;85.76;99807.70;1774196;80;21113;-63
2020/12/12 10:06:43;;;;;;;26.67;15.03;;;;;;;-2.23;85.33;99803.76;1784034;80;21113;-63
2020/12/12 10:09:11;;;;;;;21.97;14.90;;;;;;;-2.26;85.34;99792.25;1758025;80;21286;-62
2020/12/12 10:11:40;;;;;;;25.30;15.47;;;;;;;-2.27;85.09;99801.95;1756060;80;21593;-60
2020/12/12 10:14:09;;;;;;;23.00;15.47;;;;;;;-2.26;84.92;99790.44;1756080;80;21125;-63
2020/12/12 10:16:37;;;;;;;26.90;15.67;;;;;;;-2.25;84.79;99786.80;1770947;80;21609;-62
2020/12/12 10:19:05;;;;;;;26.57;15.40;;;;;;;-2.21;85.01;99791.27;1762605;80;21448;-64
2020/12/12 10:21:33;;;;;;;26.93;15.60;;;;;;;-2.25;84.70;99782.84;1745321;81;21404;-64
2020/12/12 10:24:01;;;;;;;26.10;11.93;;;;;;;-2.28;84.53;99777.09;1705550;83;21225;-62
2020/12/12 10:26:29;;;;;;;22.80;14.73;;;;;;;-2.29;84.17;99781.53;1681164;85;21075;-65
2020/12/12 10:28:57;;;;;;;28.33;15.87;;;;;;;-2.34;84.12;99790.91;1681144;85;21138;-64
2020/12/12 10:31:25;;;;;;;30.47;16.53;;;;;;;-2.30;84.50;99781.20;1681159;85;21129;-63
2020/12/12 10:33:53;;;;;;;31.50;15.70;;;;;;;-2.41;84.90;99785.50;1681161;85;21208;-61
2020/12/12 10:36:23;;;;;;;28.13;17.37;;;;;;;-2.46;85.07;99786.48;1681226;84;21228;-63
2020/12/12 10:38:52;;;;;;;27.90;18.03;;;;;;;-2.44;85.46;99772.64;1730548;82;21009;-67
2020/12/12 10:41:20;;;;;;;28.80;16.07;;;;;;;-2.41;85.50;99767.06;1716008;82;21539;-63
2020/12/12 10:43:49;;;;;;;30.90;21.13;;;;;;;-2.28;85.47;99763.43;1682223;84;21154;-65
2020/12/12 10:46:16;;;;;;;38.57;21.80;;;;;;;-2.26;85.08;99770.69;1708809;84;21414;-62
2020/12/12 10:48:45;;;;;;;29.73;16.53;;;;;;;-2.26;84.76;99766.73;1709216;84;21176;-62
2020/12/12 10:51:14;;;;;;;30.57;19.20;;;;;;;-2.28;84.61;99775.77;1663013;84;21156;-64
2020/12/12 10:53:43;;;;;;;33.73;17.50;;;;;;;-2.30;84.71;99769.83;1655444;85;21134;-67
2020/12/12 10:56:11;;;;;;;25.23;16.20;;;;;;;-2.34;84.66;99769.84;1682054;84;21177;-63
2020/12/12 10:58:39;;;;;;;21.97;14.67;;;;;;;-2.38;84.60;99767.22;1707116;84;21627;-63
2020/12/12 11:01:07;;;;;;;31.17;17.67;;;;;;;-2.42;84.69;99767.22;1706754;84;21150;-63
2020/12/12 11:03:35;;;;;;;27.73;15.93;;;;;;;-2.45;84.70;99762.30;1724927;82;21559;-63
2020/12/12 11:06:02;;;;;;;33.90;16.23;;;;;;;-2.47;84.70;99757.67;1706534;82;21217;-62
2020/12/12 11:08:30;;;;;;;26.07;14.13;;;;;;;-2.45;84.62;99760.98;1729149;82;21176;-68
2020/12/12 11:11:00;;;;;;;29.17;16.50;;;;;;;-2.42;84.58;99760.14;1727380;83;21394;-63
2020/12/12 11:13:28;;;;;;;27.70;15.23;;;;;;;-2.44;84.39;99765.23;1734650;82;21149;-63
2020/12/12 11:15:56;;;;;;;21.83;13.90;;;;;;;-2.46;84.34;99765.91;1727386;83;21622;-63
2020/12/12 11:18:24;;;;;;;28.00;14.97;;;;;;;-2.50;84.36;99754.06;1734644;82;21165;-64
2020/12/12 11:20:53;;;;;;;29.53;17.37;;;;;;;-2.52;84.47;99758.66;1727433;83;21209;-64
2020/12/12 11:23:21;;;;;;;28.30;14.33;;;;;;;-2.52;84.76;99762.12;1734316;82;23511;-66
2020/12/12 11:25:49;;;;;;;35.03;18.97;;;;;;;-2.47;84.86;99765.08;1728891;83;21377;-62
2020/12/12 11:28:17;;;;;;;36.63;17.27;;;;;;;-2.41;84.70;99759.66;1736211;82;21031;-64